sensor_id;sensor_type;location;lat;lon;timestamp;temperature;humidity
20858;DHT22;10589;53.636;10.012;2022-09-09T03:45:53;13.90;99.90
20858;DHT22;10589;53.636;10.012;2022-09-09T03:48:22;13.80;99.90
20858;DHT22;10589;53.636;10.012;2022-09-09T03:50:49;13.80;99.90
20858;DHT22;10589;53.636;10.012;2022-09-09T03:53:17;13.70;99.90
20858;DHT22;10589;53.636;10.012;2022-09-09T03:55:47;13.70;99.90
20858;DHT22;10589;53.636;10.012;2022-09-09T03:58:16;13.70;99.90
20858;DHT22;10589;53.636;10.012;2022-09-09T04:00:52;13.60;99.90
20858;DHT22;10589;53.636;10.012;2022-09-09T04:03:18;13.60;99.90
20858;DHT22;10589;53.636;10.012;2022-09-09T04:05:44;13.60;99.90
20858;DHT22;10589;53.636;10.012;2022-09-09T04:08:10;13.50;99.90
20858;DHT22;10589;53.636;10.012;2022-09-09T04:10:36;13.50;99.90
20858;DHT22;10589;53.636;10.012;2022-09-09T04:13:03;13.50;99.90
20858;DHT22;10589;53.636;10.012;2022-09-09T04:15:30;13.60;99.90
20858;DHT22;10589;53.636;10.012;2022-09-09T04:17:55;13.60;99.90
20858;DHT22;10589;53.636;10.012;2022-09-09T04:20:21;13.60;99.90
20858;DHT22;10589;53.636;10.012;2022-09-09T04:22:47;13.60;99.90
20858;DHT22;10589;53.636;10.012;2022-09-09T04:25:13;13.60;99.90
20858;DHT22;10589;53.636;10.012;2022-09-09T04:27:39;13.50;99.90
20858;DHT22;10589;53.636;10.012;2022-09-09T04:30:05;13.50;99.90
20858;DHT22;10589;53.636;10.012;2022-09-09T04:32:33;13.50;99.90
20858;DHT22;10589;53.636;10.012;2022-09-09T04:34:58;13.50;99.90
20858;DHT22;10589;53.636;10.012;2022-09-09T04:37:24;13.40;99.90
20858;DHT22;10589;53.636;10.012;2022-09-09T04:39:50;13.40;99.90
20858;DHT22;10589;53.636;10.012;2022-09-09T04:42:16;13.40;99.90
20858;DHT22;10589;53.636;10.012;2022-09-09T04:44:43;13.30;99.90
20858;DHT22;10589;53.636;10.012;2022-09-09T04:47:09;13.30;99.90
20858;DHT22;10589;53.636;10.012;2022-09-09T04:49:35;13.40;99.90
20858;DHT22;10589;53.636;10.012;2022-09-09T04:52:03;13.30;99.90
20858;DHT22;10589;53.636;10.012;2022-09-09T04:54:29;13.30;99.90
20858;DHT22;10589;53.636;10.012;2022-09-09T04:56:55;13.30;99.90
20858;DHT22;10589;53.636;10.012;2022-09-09T04:59:21;13.40;99.90
20858;DHT22;10589;53.636;10.012;2022-09-09T05:01:47;13.40;99.90
20858;DHT22;10589;53.636;10.012;2022-09-09T05:04:13;13.40;99.90
20858;DHT22;10589;53.636;10.012;2022-09-09T05:06:40;13.50;99.90
20858;DHT22;10589;53.636;10.012;2022-09-09T05:09:07;13.50;99.90
20858;DHT22;10589;53.636;10.012;2022-09-09T05:11:33;13.50;99.90
20858;DHT22;10589;53.636;10.012;2022-09-09T05:14:01;13.50;99.90
20858;DHT22;10589;53.636;10.012;2022-09-09T05:16:27;13.50;99.90
20858;DHT22;10589;53.636;10.012;2022-09-09T05:18:52;13.50;99.90
20858;DHT22;10589;53.636;10.012;2022-09-09T05:21:20;13.40;99.90
20858;DHT22;10589;53.636;10.012;2022-09-09T05:23:46;13.40;99.90
20858;DHT22;10589;53.636;10.012;2022-09-09T05:26:14;13.40;99.90
20858;DHT22;10589;53.636;10.012;2022-09-09T05:28:40;13.40;99.90
20858;DHT22;10589;53.636;10.012;2022-09-09T05:31:08;13.40;99.90
20858;DHT22;10589;53.636;10.012;2022-09-09T05:33:35;13.40;99.90
20858;DHT22;10589;53.636;10.012;2022-09-09T05:36:03;13.40;99.90
20858;DHT22;10589;53.636;10.012;2022-09-09T05:38:32;13.40;99.90
20858;DHT22;10589;53.636;10.012;2022-09-09T05:41:02;13.40;99.90
20858;DHT22;10589;53.636;10.012;2022-09-09T05:43:28;13.40;99.90
20858;DHT22;10589;53.636;10.012;2022-09-09T05:46:21;13.40;99.90
20858;DHT22;10589;53.636;10.012;2022-09-09T05:48:48;13.40;99.90
20858;DHT22;10589;53.636;10.012;2022-09-09T05:51:18;13.50;99.90
20858;DHT22;10589;53.636;10.012;2022-09-09T05:53:45;13.50;99.90
20858;DHT22;10589;53.636;10.012;2022-09-09T05:56:13;13.50;99.90
20858;DHT22;10589;53.636;10.012;2022-09-09T05:58:40;13.60;99.90
20858;DHT22;10589;53.636;10.012;2022-09-09T06:01:29;13.60;99.90
20858;DHT22;10589;53.636;10.012;2022-09-09T06:03:55;13.70;99.90
20858;DHT22;10589;53.636;10.012;2022-09-09T06:06:32;13.70;99.90
20858;DHT22;10589;53.636;10.012;2022-09-09T06:09:01;13.80;99.90
20858;DHT22;10589;53.636;10.012;2022-09-09T06:11:29;13.80;99.90
20858;DHT22;10589;53.636;10.012;2022-09-09T06:13:56;13.90;99.90
20858;DHT22;10589;53.636;10.012;2022-09-09T06:16:24;14.00;99.90
20858;DHT22;10589;53.636;10.012;2022-09-09T06:18:51;14.10;99.90
20858;DHT22;10589;53.636;10.012;2022-09-09T06:21:20;14.20;99.90
20858;DHT22;10589;53.636;10.012;2022-09-09T06:23:47;14.30;99.90
20858;DHT22;10589;53.636;10.012;2022-09-09T06:26:18;14.30;99.90
20858;DHT22;10589;53.636;10.012;2022-09-09T06:28:45;14.40;99.90
20858;DHT22;10589;53.636;10.012;2022-09-09T06:31:15;14.50;99.90
20858;DHT22;10589;53.636;10.012;2022-09-09T06:33:43;14.60;99.90
20858;DHT22;10589;53.636;10.012;2022-09-09T06:36:13;14.60;99.90
20858;DHT22;10589;53.636;10.012;2022-09-09T06:38:40;14.60;99.90
20858;DHT22;10589;53.636;10.012;2022-09-09T06:41:12;14.60;99.90
20858;DHT22;10589;53.636;10.012;2022-09-09T06:43:38;14.80;99.90
20858;DHT22;10589;53.636;10.012;2022-09-09T06:48:36;14.70;99.90
20858;DHT22;10589;53.636;10.012;2022-09-09T06:53:34;14.80;99.90
20858;DHT22;10589;53.636;10.012;2022-09-09T06:56:01;14.90;99.90
20858;DHT22;10589;53.636;10.012;2022-09-09T06:58:28;15.10;99.90
20858;DHT22;10589;53.636;10.012;2022-09-09T07:01:05;15.10;99.90
20858;DHT22;10589;53.636;10.012;2022-09-09T07:03:31;15.20;99.90
20858;DHT22;10589;53.636;10.012;2022-09-09T07:05:57;15.20;99.90
20858;DHT22;10589;53.636;10.012;2022-09-09T07:08:23;15.20;99.90
20858;DHT22;10589;53.636;10.012;2022-09-09T07:10:50;15.20;99.90
20858;DHT22;10589;53.636;10.012;2022-09-09T07:13:25;15.30;99.90
20858;DHT22;10589;53.636;10.012;2022-09-09T07:15:51;15.40;99.90
20858;DHT22;10589;53.636;10.012;2022-09-09T07:18:17;15.60;99.90
20858;DHT22;10589;53.636;10.012;2022-09-09T07:20:43;15.80;99.90
20858;DHT22;10589;53.636;10.012;2022-09-09T07:23:08;16.00;99.90
20858;DHT22;10589;53.636;10.012;2022-09-09T07:25:34;16.10;99.90
20858;DHT22;10589;53.636;10.012;2022-09-09T07:27:59;16.20;99.90
20858;DHT22;10589;53.636;10.012;2022-09-09T07:30:25;16.30;99.90
20858;DHT22;10589;53.636;10.012;2022-09-09T07:32:51;16.40;99.90
20858;DHT22;10589;53.636;10.012;2022-09-09T07:35:17;16.40;99.90
20858;DHT22;10589;53.636;10.012;2022-09-09T07:37:43;16.40;99.90
20858;DHT22;10589;53.636;10.012;2022-09-09T07:40:10;16.40;99.90
20858;DHT22;10589;53.636;10.012;2022-09-09T07:42:36;16.60;99.90
20858;DHT22;10589;53.636;10.012;2022-09-09T07:45:03;16.70;99.90
20858;DHT22;10589;53.636;10.012;2022-09-09T07:47:29;16.80;99.90
20858;DHT22;10589;53.636;10.012;2022-09-09T07:49:55;16.70;99.90
20858;DHT22;10589;53.636;10.012;2022-09-09T07:52:21;17.00;99.90
20858;DHT22;10589;53.636;10.012;2022-09-09T07:54:47;17.20;99.90
20858;DHT22;10589;53.636;10.012;2022-09-09T07:57:12;17.20;99.90
20858;DHT22;10589;53.636;10.012;2022-09-09T07:59:38;17.30;99.90
20858;DHT22;10589;53.636;10.012;2022-09-09T08:02:04;17.30;99.90
20858;DHT22;10589;53.636;10.012;2022-09-09T08:04:30;17.30;99.90
20858;DHT22;10589;53.636;10.012;2022-09-09T08:06:57;17.40;99.90
20858;DHT22;10589;53.636;10.012;2022-09-09T08:09:24;17.50;99.90
20858;DHT22;10589;53.636;10.012;2022-09-09T08:11:55;17.50;99.90
20858;DHT22;10589;53.636;10.012;2022-09-09T08:14:22;17.60;99.90
20858;DHT22;10589;53.636;10.012;2022-09-09T08:16:49;17.60;99.90
20858;DHT22;10589;53.636;10.012;2022-09-09T08:19:15;17.60;99.90
20858;DHT22;10589;53.636;10.012;2022-09-09T08:21:43;17.70;99.90
20858;DHT22;10589;53.636;10.012;2022-09-09T08:24:10;17.80;99.90
20858;DHT22;10589;53.636;10.012;2022-09-09T08:26:44;17.90;99.90
20858;DHT22;10589;53.636;10.012;2022-09-09T08:29:11;18.10;99.90
20858;DHT22;10589;53.636;10.012;2022-09-09T08:31:49;18.30;99.90
20858;DHT22;10589;53.636;10.012;2022-09-09T08:34:17;18.40;99.90
20858;DHT22;10589;53.636;10.012;2022-09-09T08:36:46;18.40;99.90
20858;DHT22;10589;53.636;10.012;2022-09-09T08:39:14;18.50;99.90
20858;DHT22;10589;53.636;10.012;2022-09-09T08:44:46;18.60;99.90
20858;DHT22;10589;53.636;10.012;2022-09-09T08:49:52;18.70;99.90
20858;DHT22;10589;53.636;10.012;2022-09-09T08:52:29;18.80;99.90
20858;DHT22;10589;53.636;10.012;2022-09-09T08:55:05;18.90;99.90
20858;DHT22;10589;53.636;10.012;2022-09-09T08:57:38;19.10;99.90
20858;DHT22;10589;53.636;10.012;2022-09-09T09:00:04;18.80;99.90
20858;DHT22;10589;53.636;10.012;2022-09-09T09:12:47;18.70;99.90
20858;DHT22;10589;53.636;10.012;2022-09-09T09:15:19;18.90;99.90
20858;DHT22;10589;53.636;10.012;2022-09-09T09:17:46;19.10;99.90
20858;DHT22;10589;53.636;10.012;2022-09-09T09:20:14;19.20;99.90
20858;DHT22;10589;53.636;10.012;2022-09-09T09:22:50;19.40;99.90
20858;DHT22;10589;53.636;10.012;2022-09-09T09:25:27;19.50;99.90
20858;DHT22;10589;53.636;10.012;2022-09-09T09:30:56;20.20;99.90
20858;DHT22;10589;53.636;10.012;2022-09-09T09:33:46;20.40;99.90
20858;DHT22;10589;53.636;10.012;2022-09-09T09:36:12;20.70;99.90
20858;DHT22;10589;53.636;10.012;2022-09-09T09:38:55;20.90;99.90
20858;DHT22;10589;53.636;10.012;2022-09-09T09:41:39;21.00;99.90
20858;DHT22;10589;53.636;10.012;2022-09-09T09:46:51;20.80;99.90
20858;DHT22;10589;53.636;10.012;2022-09-09T09:49:17;20.90;99.90
20858;DHT22;10589;53.636;10.012;2022-09-09T09:51:42;20.90;99.90
20858;DHT22;10589;53.636;10.012;2022-09-09T09:54:27;21.00;99.90
20858;DHT22;10589;53.636;10.012;2022-09-09T09:56:54;21.10;99.90
20858;DHT22;10589;53.636;10.012;2022-09-09T10:01:52;21.20;99.90
20858;DHT22;10589;53.636;10.012;2022-09-09T10:04:22;21.20;99.90
20858;DHT22;10589;53.636;10.012;2022-09-09T10:06:51;21.30;99.90
20858;DHT22;10589;53.636;10.012;2022-09-09T10:09:26;21.20;99.90
20858;DHT22;10589;53.636;10.012;2022-09-09T10:14:49;20.90;99.90
20858;DHT22;10589;53.636;10.012;2022-09-09T10:20:11;20.90;99.90
20858;DHT22;10589;53.636;10.012;2022-09-09T10:22:47;21.20;99.90
20858;DHT22;10589;53.636;10.012;2022-09-09T10:25:29;21.30;99.90
20858;DHT22;10589;53.636;10.012;2022-09-09T10:33:32;21.80;99.90
20858;DHT22;10589;53.636;10.012;2022-09-09T10:36:03;21.80;99.90
20858;DHT22;10589;53.636;10.012;2022-09-09T10:38:40;21.50;99.90
20858;DHT22;10589;53.636;10.012;2022-09-09T10:44:02;21.20;99.90
20858;DHT22;10589;53.636;10.012;2022-09-09T10:52:14;21.10;99.90
20858;DHT22;10589;53.636;10.012;2022-09-09T10:54:56;21.00;99.90
20858;DHT22;10589;53.636;10.012;2022-09-09T10:57:31;21.00;99.90
20858;DHT22;10589;53.636;10.012;2022-09-09T11:00:04;21.20;99.90
20858;DHT22;10589;53.636;10.012;2022-09-09T11:02:33;21.50;99.90
20858;DHT22;10589;53.636;10.012;2022-09-09T11:05:06;21.60;99.90
20858;DHT22;10589;53.636;10.012;2022-09-09T11:13:13;21.90;99.90
20858;DHT22;10589;53.636;10.012;2022-09-09T11:15:53;22.10;99.90
20858;DHT22;10589;53.636;10.012;2022-09-09T11:18:21;22.10;99.90
20858;DHT22;10589;53.636;10.012;2022-09-09T11:20:51;22.10;99.90
20858;DHT22;10589;53.636;10.012;2022-09-09T11:23:27;22.10;99.90
20858;DHT22;10589;53.636;10.012;2022-09-09T11:25:58;22.30;99.90
20858;DHT22;10589;53.636;10.012;2022-09-09T11:34:08;22.30;99.90
20858;DHT22;10589;53.636;10.012;2022-09-09T11:42:16;23.50;99.90
20858;DHT22;10589;53.636;10.012;2022-09-09T11:44:43;23.40;99.90
20858;DHT22;10589;53.636;10.012;2022-09-09T11:47:29;23.50;99.90
20858;DHT22;10589;53.636;10.012;2022-09-09T11:52:41;23.00;99.90
20858;DHT22;10589;53.636;10.012;2022-09-09T11:55:31;23.10;99.90
20858;DHT22;10589;53.636;10.012;2022-09-09T11:58:04;23.20;99.90
20858;DHT22;10589;53.636;10.012;2022-09-09T12:03:38;23.50;99.90
20858;DHT22;10589;53.636;10.012;2022-09-09T12:06:29;23.70;99.90
20858;DHT22;10589;53.636;10.012;2022-09-09T12:11:39;23.40;99.90
20858;DHT22;10589;53.636;10.012;2022-09-09T12:14:22;23.20;99.90
20858;DHT22;10589;53.636;10.012;2022-09-09T12:16:48;22.70;99.90
20858;DHT22;10589;53.636;10.012;2022-09-09T12:19:19;22.30;99.90
20858;DHT22;10589;53.636;10.012;2022-09-09T12:25:09;21.80;99.90
20858;DHT22;10589;53.636;10.012;2022-09-09T12:27:50;21.70;99.90
20858;DHT22;10589;53.636;10.012;2022-09-09T12:30:29;21.60;99.90
20858;DHT22;10589;53.636;10.012;2022-09-09T12:33:02;21.40;99.90
20858;DHT22;10589;53.636;10.012;2022-09-09T12:35:28;21.20;99.90
20858;DHT22;10589;53.636;10.012;2022-09-09T12:37:58;21.10;99.90
20858;DHT22;10589;53.636;10.012;2022-09-09T12:40:31;21.00;99.90
20858;DHT22;10589;53.636;10.012;2022-09-09T12:42:58;21.00;99.90
20858;DHT22;10589;53.636;10.012;2022-09-09T12:45:29;20.90;99.90
20858;DHT22;10589;53.636;10.012;2022-09-09T12:48:06;20.90;99.90
20858;DHT22;10589;53.636;10.012;2022-09-09T12:50:35;21.00;99.90
20858;DHT22;10589;53.636;10.012;2022-09-09T12:53:30;21.00;99.90
20858;DHT22;10589;53.636;10.012;2022-09-09T12:56:03;20.60;99.90
20858;DHT22;10589;53.636;10.012;2022-09-09T12:58:31;20.30;99.90
20858;DHT22;10589;53.636;10.012;2022-09-09T13:01:01;20.20;99.90
20858;DHT22;10589;53.636;10.012;2022-09-09T13:03:31;20.00;99.90
20858;DHT22;10589;53.636;10.012;2022-09-09T13:06:12;19.90;99.90
20858;DHT22;10589;53.636;10.012;2022-09-09T13:08:39;19.60;99.90
20858;DHT22;10589;53.636;10.012;2022-09-09T13:11:13;19.50;99.90
20858;DHT22;10589;53.636;10.012;2022-09-09T13:13:41;19.40;99.90
20858;DHT22;10589;53.636;10.012;2022-09-09T13:16:26;19.30;99.90
20858;DHT22;10589;53.636;10.012;2022-09-09T13:18:56;19.20;99.90
20858;DHT22;10589;53.636;10.012;2022-09-09T13:21:34;19.10;99.90
20858;DHT22;10589;53.636;10.012;2022-09-09T13:24:00;19.00;99.90
20858;DHT22;10589;53.636;10.012;2022-09-09T13:26:29;18.90;99.90
20858;DHT22;10589;53.636;10.012;2022-09-09T13:29:08;18.70;99.90
20858;DHT22;10589;53.636;10.012;2022-09-09T13:31:40;18.70;99.90
20858;DHT22;10589;53.636;10.012;2022-09-09T13:34:27;18.50;99.90
20858;DHT22;10589;53.636;10.012;2022-09-09T13:36:59;18.40;99.90
20858;DHT22;10589;53.636;10.012;2022-09-09T13:39:28;18.30;99.90
20858;DHT22;10589;53.636;10.012;2022-09-09T13:41:53;18.20;99.90
20858;DHT22;10589;53.636;10.012;2022-09-09T13:44:26;18.20;99.90
20858;DHT22;10589;53.636;10.012;2022-09-09T13:47:05;18.10;99.90
20858;DHT22;10589;53.636;10.012;2022-09-09T13:49:32;17.90;99.90
20858;DHT22;10589;53.636;10.012;2022-09-09T13:52:18;17.70;99.90
20858;DHT22;10589;53.636;10.012;2022-09-09T13:54:51;17.60;99.90
20858;DHT22;10589;53.636;10.012;2022-09-09T13:57:19;17.50;99.90
20858;DHT22;10589;53.636;10.012;2022-09-09T13:59:46;17.40;99.90
20858;DHT22;10589;53.636;10.012;2022-09-09T14:02:13;17.30;99.90
20858;DHT22;10589;53.636;10.012;2022-09-09T14:04:39;17.10;99.90
20858;DHT22;10589;53.636;10.012;2022-09-09T14:07:12;17.00;99.90
20858;DHT22;10589;53.636;10.012;2022-09-09T14:09:38;17.00;99.90
20858;DHT22;10589;53.636;10.012;2022-09-09T14:12:04;17.00;99.90
20858;DHT22;10589;53.636;10.012;2022-09-09T14:14:30;16.90;99.90
20858;DHT22;10589;53.636;10.012;2022-09-09T14:16:56;16.90;99.90
20858;DHT22;10589;53.636;10.012;2022-09-09T14:19:21;16.90;99.90
20858;DHT22;10589;53.636;10.012;2022-09-09T14:21:48;16.90;99.90
20858;DHT22;10589;53.636;10.012;2022-09-09T14:24:14;16.80;99.90
20858;DHT22;10589;53.636;10.012;2022-09-09T14:26:39;16.80;99.90
20858;DHT22;10589;53.636;10.012;2022-09-09T14:29:06;16.80;99.90
20858;DHT22;10589;53.636;10.012;2022-09-09T14:31:31;16.80;99.90
20858;DHT22;10589;53.636;10.012;2022-09-09T14:33:57;16.90;99.90
20858;DHT22;10589;53.636;10.012;2022-09-09T14:36:24;16.90;99.90
20858;DHT22;10589;53.636;10.012;2022-09-09T14:38:50;16.90;99.90
20858;DHT22;10589;53.636;10.012;2022-09-09T14:41:18;16.90;99.90
20858;DHT22;10589;53.636;10.012;2022-09-09T14:43:45;17.00;99.90
20858;DHT22;10589;53.636;10.012;2022-09-09T14:46:13;17.00;99.90
20858;DHT22;10589;53.636;10.012;2022-09-09T14:48:39;17.10;99.90
20858;DHT22;10589;53.636;10.012;2022-09-09T14:51:14;17.10;99.90
20858;DHT22;10589;53.636;10.012;2022-09-09T14:53:41;17.10;99.90
20858;DHT22;10589;53.636;10.012;2022-09-09T14:56:14;16.90;99.90
20858;DHT22;10589;53.636;10.012;2022-09-09T14:58:40;16.90;99.90
20858;DHT22;10589;53.636;10.012;2022-09-09T15:01:10;16.90;99.90
20858;DHT22;10589;53.636;10.012;2022-09-09T15:03:37;16.90;99.90
20858;DHT22;10589;53.636;10.012;2022-09-09T15:06:07;16.80;99.90
20858;DHT22;10589;53.636;10.012;2022-09-09T15:08:37;16.70;99.90
20858;DHT22;10589;53.636;10.012;2022-09-09T15:11:04;16.60;99.90
20858;DHT22;10589;53.636;10.012;2022-09-09T15:13:30;16.60;99.90
20858;DHT22;10589;53.636;10.012;2022-09-09T15:16:00;16.40;99.90
20858;DHT22;10589;53.636;10.012;2022-09-09T15:18:28;16.40;99.90
20858;DHT22;10589;53.636;10.012;2022-09-09T15:20:54;16.50;99.90
20858;DHT22;10589;53.636;10.012;2022-09-09T15:23:20;16.50;99.90
20858;DHT22;10589;53.636;10.012;2022-09-09T15:25:53;16.60;99.90
20858;DHT22;10589;53.636;10.012;2022-09-09T15:28:19;16.70;99.90
20858;DHT22;10589;53.636;10.012;2022-09-09T15:30:47;16.80;99.90
20858;DHT22;10589;53.636;10.012;2022-09-09T15:33:13;16.80;99.90
20858;DHT22;10589;53.636;10.012;2022-09-09T15:35:39;16.90;99.90
20858;DHT22;10589;53.636;10.012;2022-09-09T15:38:04;17.00;99.90
20858;DHT22;10589;53.636;10.012;2022-09-09T15:40:31;17.10;99.90
20858;DHT22;10589;53.636;10.012;2022-09-09T15:42:58;17.20;99.90
20858;DHT22;10589;53.636;10.012;2022-09-09T15:45:24;17.10;99.90
20858;DHT22;10589;53.636;10.012;2022-09-09T15:47:49;17.10;99.90
20858;DHT22;10589;53.636;10.012;2022-09-09T15:50:15;17.10;99.90
20858;DHT22;10589;53.636;10.012;2022-09-09T15:52:40;17.20;99.90
20858;DHT22;10589;53.636;10.012;2022-09-09T15:55:06;17.20;99.90
20858;DHT22;10589;53.636;10.012;2022-09-09T15:57:33;17.30;99.90
20858;DHT22;10589;53.636;10.012;2022-09-09T16:00:00;17.30;99.90
20858;DHT22;10589;53.636;10.012;2022-09-09T16:02:26;17.40;99.90
20858;DHT22;10589;53.636;10.012;2022-09-09T16:04:51;17.40;99.90
20858;DHT22;10589;53.636;10.012;2022-09-09T16:07:17;17.50;99.90
20858;DHT22;10589;53.636;10.012;2022-09-09T16:09:43;17.60;99.90
20858;DHT22;10589;53.636;10.012;2022-09-09T16:12:09;17.90;99.90
20858;DHT22;10589;53.636;10.012;2022-09-09T16:14:38;18.30;99.90
20858;DHT22;10589;53.636;10.012;2022-09-09T16:17:05;18.80;99.90
20858;DHT22;10589;53.636;10.012;2022-09-09T16:19:31;19.70;99.90
20858;DHT22;10589;53.636;10.012;2022-09-09T16:21:57;20.50;99.90
20858;DHT22;10589;53.636;10.012;2022-09-09T16:24:23;21.20;99.90
20858;DHT22;10589;53.636;10.012;2022-09-09T16:26:51;21.50;99.90
20858;DHT22;10589;53.636;10.012;2022-09-09T16:29:18;22.30;99.90
20858;DHT22;10589;53.636;10.012;2022-09-09T16:31:45;23.00;99.90
20858;DHT22;10589;53.636;10.012;2022-09-09T16:34:12;23.40;99.90
20858;DHT22;10589;53.636;10.012;2022-09-09T16:36:39;24.00;99.90
20858;DHT22;10589;53.636;10.012;2022-09-09T16:39:08;24.70;99.90
20858;DHT22;10589;53.636;10.012;2022-09-09T16:41:34;25.10;99.90
20858;DHT22;10589;53.636;10.012;2022-09-09T16:44:05;25.10;99.90
20858;DHT22;10589;53.636;10.012;2022-09-09T16:46:34;24.60;99.90
20858;DHT22;10589;53.636;10.012;2022-09-09T16:49:01;24.20;99.90
20858;DHT22;10589;53.636;10.012;2022-09-09T16:51:30;23.70;99.90
20858;DHT22;10589;53.636;10.012;2022-09-09T16:53:59;23.10;99.90
20858;DHT22;10589;53.636;10.012;2022-09-09T16:56:27;22.40;99.90
20858;DHT22;10589;53.636;10.012;2022-09-09T16:58:55;21.50;99.90
20858;DHT22;10589;53.636;10.012;2022-09-09T17:01:31;20.80;99.90
20858;DHT22;10589;53.636;10.012;2022-09-09T17:04:02;20.30;99.90
20858;DHT22;10589;53.636;10.012;2022-09-09T17:06:29;19.70;99.90
20858;DHT22;10589;53.636;10.012;2022-09-09T17:08:58;19.40;99.90
20858;DHT22;10589;53.636;10.012;2022-09-09T17:11:24;19.10;99.90
20858;DHT22;10589;53.636;10.012;2022-09-09T17:13:51;18.90;99.90
20858;DHT22;10589;53.636;10.012;2022-09-09T17:16:19;18.70;99.90
20858;DHT22;10589;53.636;10.012;2022-09-09T17:18:49;18.40;99.90
20858;DHT22;10589;53.636;10.012;2022-09-09T17:21:18;18.30;99.90
20858;DHT22;10589;53.636;10.012;2022-09-09T17:23:44;18.10;99.90
20858;DHT22;10589;53.636;10.012;2022-09-09T17:26:12;17.90;99.90
20858;DHT22;10589;53.636;10.012;2022-09-09T17:28:38;17.70;99.90
20858;DHT22;10589;53.636;10.012;2022-09-09T17:31:06;17.50;99.90
20858;DHT22;10589;53.636;10.012;2022-09-09T17:33:37;17.40;99.90
20858;DHT22;10589;53.636;10.012;2022-09-09T17:36:24;17.20;99.90
20858;DHT22;10589;53.636;10.012;2022-09-09T17:38:50;17.10;99.90
20858;DHT22;10589;53.636;10.012;2022-09-09T17:41:31;16.90;99.90
20858;DHT22;10589;53.636;10.012;2022-09-09T17:43:57;16.80;99.90
20858;DHT22;10589;53.636;10.012;2022-09-09T17:46:29;16.60;99.90
20858;DHT22;10589;53.636;10.012;2022-09-09T17:49:00;16.50;99.90
20858;DHT22;10589;53.636;10.012;2022-09-09T17:51:27;16.40;99.90
20858;DHT22;10589;53.636;10.012;2022-09-09T17:53:57;16.20;99.90
20858;DHT22;10589;53.636;10.012;2022-09-09T17:56:25;16.10;99.90
20858;DHT22;10589;53.636;10.012;2022-09-09T17:58:52;16.00;99.90
20858;DHT22;10589;53.636;10.012;2022-09-09T18:01:20;15.90;99.90
20858;DHT22;10589;53.636;10.012;2022-09-09T18:03:47;15.80;99.90
20858;DHT22;10589;53.636;10.012;2022-09-09T18:06:19;15.70;99.90
20858;DHT22;10589;53.636;10.012;2022-09-09T18:08:50;15.60;99.90
20858;DHT22;10589;53.636;10.012;2022-09-09T18:11:17;15.50;99.90
20858;DHT22;10589;53.636;10.012;2022-09-09T18:13:58;15.40;99.90
20858;DHT22;10589;53.636;10.012;2022-09-09T18:16:29;15.30;99.90
20858;DHT22;10589;53.636;10.012;2022-09-09T18:18:56;15.30;99.90
20858;DHT22;10589;53.636;10.012;2022-09-09T18:21:29;15.20;99.90
20858;DHT22;10589;53.636;10.012;2022-09-09T18:23:59;15.10;99.90
20858;DHT22;10589;53.636;10.012;2022-09-09T18:26:25;15.00;99.90
20858;DHT22;10589;53.636;10.012;2022-09-09T18:28:57;15.00;99.90
20858;DHT22;10589;53.636;10.012;2022-09-09T18:31:25;15.00;99.90
20858;DHT22;10589;53.636;10.012;2022-09-09T18:33:52;14.90;99.90
20858;DHT22;10589;53.636;10.012;2022-09-09T18:36:21;15.00;99.90
20858;DHT22;10589;53.636;10.012;2022-09-09T18:38:48;15.00;99.90
20858;DHT22;10589;53.636;10.012;2022-09-09T18:41:19;15.00;99.90
20858;DHT22;10589;53.636;10.012;2022-09-09T18:43:49;15.00;99.90
20858;DHT22;10589;53.636;10.012;2022-09-09T18:46:15;15.00;99.90
20858;DHT22;10589;53.636;10.012;2022-09-09T18:48:41;15.00;99.90
20858;DHT22;10589;53.636;10.012;2022-09-09T18:51:10;15.00;99.90
20858;DHT22;10589;53.636;10.012;2022-09-09T18:53:37;15.00;99.90
20858;DHT22;10589;53.636;10.012;2022-09-09T18:56:06;15.00;99.90
20858;DHT22;10589;53.636;10.012;2022-09-09T18:58:33;15.00;99.90
20858;DHT22;10589;53.636;10.012;2022-09-09T19:00:59;15.00;99.90
20858;DHT22;10589;53.636;10.012;2022-09-09T19:03:27;15.10;99.90
20858;DHT22;10589;53.636;10.012;2022-09-09T19:05:53;15.10;99.90
20858;DHT22;10589;53.636;10.012;2022-09-09T19:08:24;15.10;99.90
20858;DHT22;10589;53.636;10.012;2022-09-09T19:10:50;15.10;99.90
20858;DHT22;10589;53.636;10.012;2022-09-09T19:13:16;15.20;99.90
20858;DHT22;10589;53.636;10.012;2022-09-09T19:15:42;15.20;99.90
20858;DHT22;10589;53.636;10.012;2022-09-09T19:18:07;15.20;99.90
20858;DHT22;10589;53.636;10.012;2022-09-09T19:20:33;15.20;99.90
20858;DHT22;10589;53.636;10.012;2022-09-09T19:22:59;15.20;99.90
20858;DHT22;10589;53.636;10.012;2022-09-09T19:25:25;15.30;99.90
20858;DHT22;10589;53.636;10.012;2022-09-09T19:27:51;15.30;99.90
20858;DHT22;10589;53.636;10.012;2022-09-09T19:30:16;15.30;99.90
20858;DHT22;10589;53.636;10.012;2022-09-09T19:32:42;15.30;99.90
20858;DHT22;10589;53.636;10.012;2022-09-09T19:35:09;15.30;99.90
20858;DHT22;10589;53.636;10.012;2022-09-09T19:37:36;15.20;99.90
20858;DHT22;10589;53.636;10.012;2022-09-09T19:40:02;15.20;99.90
20858;DHT22;10589;53.636;10.012;2022-09-09T19:42:29;15.20;99.90
20858;DHT22;10589;53.636;10.012;2022-09-09T19:44:56;15.10;99.90
20858;DHT22;10589;53.636;10.012;2022-09-09T19:47:22;15.10;99.90
20858;DHT22;10589;53.636;10.012;2022-09-09T19:49:48;15.00;99.90
20858;DHT22;10589;53.636;10.012;2022-09-09T19:52:17;14.90;99.90
20858;DHT22;10589;53.636;10.012;2022-09-09T19:54:44;14.90;99.90
20858;DHT22;10589;53.636;10.012;2022-09-09T19:57:10;14.80;99.90
20858;DHT22;10589;53.636;10.012;2022-09-09T19:59:35;14.80;99.90
20858;DHT22;10589;53.636;10.012;2022-09-09T20:02:01;14.80;99.90
20858;DHT22;10589;53.636;10.012;2022-09-09T20:04:27;14.70;99.90
20858;DHT22;10589;53.636;10.012;2022-09-09T20:06:53;14.70;99.90
20858;DHT22;10589;53.636;10.012;2022-09-09T20:09:19;14.70;99.90
20858;DHT22;10589;53.636;10.012;2022-09-09T20:11:46;14.70;99.90
20858;DHT22;10589;53.636;10.012;2022-09-09T20:14:13;14.60;99.90
20858;DHT22;10589;53.636;10.012;2022-09-09T20:16:39;14.60;99.90
20858;DHT22;10589;53.636;10.012;2022-09-09T20:19:06;14.60;99.90
20858;DHT22;10589;53.636;10.012;2022-09-09T20:21:36;14.60;99.90
20858;DHT22;10589;53.636;10.012;2022-09-09T20:24:04;14.50;99.90
20858;DHT22;10589;53.636;10.012;2022-09-09T20:26:32;14.50;99.90
20858;DHT22;10589;53.636;10.012;2022-09-09T20:29:00;14.50;99.90